Time;durP1;ratioP1;P1;durP2;ratioP2;P2;SDS_P1;SDS_P2;PMS_P1;PMS_P2;Temp;Humidity;BMP_temperature;BMP_pressure;BME280_temperature;BME280_humidity;BME280_pressure;Samples;Min_cycle;Max_cycle;Signal;HPM_P1;HPM_P2
2024/03/18 00:00:57;;;;;;;18.48;15.32;;;13.40;99.90;;;13.80;100.00;101372.38;4876606;29;20049;-71
2024/03/18 00:03:25;;;;;;;19.55;14.77;;;13.40;99.90;;;13.79;100.00;101371.47;4875867;29;20116;-71
2024/03/18 00:05:53;;;;;;;19.92;14.82;;;13.40;99.90;;;13.80;100.00;101377.69;4861504;29;20483;-67
2024/03/18 00:08:20;;;;;;;20.02;15.57;;;13.40;99.90;;;13.79;100.00;101374.13;4876057;29;20097;-68
2024/03/18 00:10:47;;;;;;;19.92;15.00;;;13.40;99.90;;;13.84;100.00;101379.41;4876142;29;20049;-67
2024/03/18 00:13:15;;;;;;;21.27;15.70;;;13.50;99.90;;;13.85;100.00;101375.84;4876148;29;20041;-67
2024/03/18 00:15:42;;;;;;;19.25;15.68;;;13.50;99.90;;;13.84;100.00;101374.97;4876784;29;20439;-67
2024/03/18 00:18:11;;;;;;;18.85;16.42;;;13.50;99.90;;;13.85;100.00;101370.53;4876169;29;20060;-67
2024/03/18 00:20:38;;;;;;;22.13;16.63;;;13.50;99.90;;;13.88;100.00;101374.03;4876217;29;20488;-67
2024/03/18 00:23:06;;;;;;;21.65;17.00;;;13.50;99.90;;;13.88;100.00;101370.50;4876298;29;20671;-67
2024/03/18 00:25:33;;;;;;;21.10;17.48;;;13.60;99.90;;;13.92;100.00;101372.22;4876266;29;20451;-67
2024/03/18 00:28:00;;;;;;;18.02;16.08;;;13.60;99.90;;;13.93;100.00;101372.22;4876196;29;20048;-67
2024/03/18 00:30:28;;;;;;;21.33;17.42;;;13.60;99.90;;;13.86;100.00;101367.84;4875883;29;20060;-67
2024/03/18 00:32:55;;;;;;;23.05;16.63;;;13.60;99.90;;;13.97;100.00;101370.41;4876188;29;20410;-68
2024/03/18 00:35:24;;;;;;;22.35;17.30;;;13.60;99.90;;;13.97;100.00;101362.44;4875790;29;20045;-67
2024/03/18 00:37:51;;;;;;;22.40;15.68;;;13.60;99.90;;;14.01;100.00;101367.72;4876069;29;20065;-67
2024/03/18 00:40:18;;;;;;;23.80;15.05;;;13.60;99.90;;;13.96;100.00;101365.97;4876301;29;20049;-68
2024/03/18 00:42:45;;;;;;;20.65;13.90;;;13.60;99.90;;;13.85;100.00;101366.09;4875685;29;20556;-67
2024/03/18 00:45:14;;;;;;;19.65;13.88;;;13.50;99.90;;;13.86;100.00;101354.56;4876082;29;20055;-67
2024/03/18 00:47:41;;;;;;;22.92;13.88;;;13.50;99.90;;;13.85;100.00;101352.81;4875867;29;20101;-67
2024/03/18 00:50:11;;;;;;;16.83;13.98;;;13.50;99.90;;;13.87;100.00;101347.47;4860350;29;20071;-67
2024/03/18 00:52:40;;;;;;;18.33;13.27;;;13.50;99.90;;;13.86;100.00;101353.69;4875995;29;20041;-67
2024/03/18 00:55:10;;;;;;;19.02;13.00;;;13.50;99.90;;;13.90;100.00;101352.75;4860211;29;20044;-67
2024/03/18 00:57:38;;;;;;;17.75;13.70;;;13.50;99.90;;;13.90;100.00;101348.31;4876008;29;20041;-67
2024/03/18 01:00:11;;;;;;;19.27;13.80;;;13.50;99.90;;;13.91;100.00;101354.50;4875726;29;20045;-67
2024/03/18 01:02:39;;;;;;;22.20;13.18;;;13.60;99.90;;;13.89;100.00;101353.66;4875661;29;20049;-68
2024/03/18 01:05:10;;;;;;;17.17;13.02;;;13.60;99.90;;;13.91;100.00;101358.06;4875791;29;20418;-67
2024/03/18 01:07:40;;;;;;;19.52;13.80;;;13.60;99.90;;;13.91;100.00;101342.09;4860542;29;20049;-66
2024/03/18 01:10:09;;;;;;;17.33;13.47;;;13.60;99.90;;;13.87;100.00;101344.81;4875638;29;20045;-68
2024/03/18 01:12:36;;;;;;;18.67;13.32;;;13.50;99.90;;;13.93;100.00;101342.97;4875765;29;20048;-67
2024/03/18 01:15:05;;;;;;;18.73;13.63;;;13.60;99.90;;;14.00;100.00;101362.38;4877768;29;20049;-67
2024/03/18 01:17:33;;;;;;;18.02;13.40;;;13.60;99.90;;;13.97;100.00;101349.13;4879201;29;20053;-68
2024/03/18 01:20:00;;;;;;;22.25;13.02;;;13.60;99.90;;;13.94;100.00;101350.03;4879438;29;20073;-68
2024/03/18 01:22:27;;;;;;;20.75;13.30;;;13.60;99.90;;;13.87;100.00;101344.81;4879018;29;20045;-68
2024/03/18 01:24:59;;;;;;;18.35;12.95;;;13.60;99.90;;;13.84;100.00;101320.91;4879062;29;20696;-67
2024/03/18 01:27:26;;;;;;;20.35;13.23;;;13.60;99.90;;;14.00;100.00;101343.78;4878953;29;20048;-67
2024/03/18 01:29:53;;;;;;;20.95;13.68;;;13.60;99.90;;;14.07;100.00;101341.03;4879552;29;20037;-68
2024/03/18 01:32:22;;;;;;;19.35;12.98;;;13.70;99.90;;;14.08;100.00;101342.81;4879077;29;20109;-67
2024/03/18 01:34:50;;;;;;;17.63;13.27;;;13.70;99.90;;;14.03;100.00;101333.13;4879086;29;20049;-67
2024/03/18 01:37:18;;;;;;;21.00;12.60;;;13.70;99.90;;;14.06;100.00;101333.06;4863349;29;20096;-68
2024/03/18 01:39:45;;;;;;;16.00;12.02;;;13.70;99.90;;;14.01;100.00;101329.59;4878741;29;20049;-67
2024/03/18 01:42:14;;;;;;;17.42;12.57;;;13.70;99.90;;;13.26;100.00;101236.44;4878678;29;20045;-67
2024/03/18 01:44:53;;;;;;;19.58;13.10;;;13.60;99.90;;;13.84;100.00;101321.78;4863572;29;20068;-67
2024/03/18 01:47:21;;;;;;;19.92;12.55;;;13.50;99.90;;;13.85;100.00;101333.31;4878959;29;20043;-68
2024/03/18 01:49:50;;;;;;;16.48;11.55;;;13.50;99.90;;;13.77;100.00;101330.72;4878791;29;20044;-68
2024/03/18 01:52:18;;;;;;;22.73;13.00;;;13.40;99.90;;;13.85;100.00;101327.97;4878819;29;20041;-67
2024/03/18 01:54:47;;;;;;;18.83;11.73;;;13.40;99.90;;;13.90;100.00;101326.16;4878768;29;20045;-67
2024/03/18 01:57:16;;;;;;;17.73;11.82;;;13.50;99.90;;;13.87;100.00;101319.09;4878472;29;20052;-68
2024/03/18 01:59:43;;;;;;;22.27;12.57;;;13.50;99.90;;;13.86;100.00;101316.47;4878698;29;20475;-68
2024/03/18 02:02:11;;;;;;;16.00;11.77;;;13.50;99.90;;;13.84;100.00;101316.44;4863696;29;20041;-67
2024/03/18 02:04:39;;;;;;;19.88;12.35;;;13.50;99.90;;;13.86;100.00;101316.47;4863364;29;20048;-67
2024/03/18 02:07:21;;;;;;;18.13;12.02;;;13.50;99.90;;;13.87;100.00;101311.13;4878327;29;20072;-67
2024/03/18 02:09:49;;;;;;;22.30;12.52;;;13.50;99.90;;;13.75;100.00;101303.25;4878563;29;20061;-67
2024/03/18 02:12:18;;;;;;;20.02;12.55;;;13.40;99.90;;;13.71;100.00;101303.31;4878261;29;20045;-67
2024/03/18 02:14:50;;;;;;;20.25;12.45;;;13.50;99.90;;;13.84;100.00;101304.97;4862735;29;20045;-68
2024/03/18 02:17:18;;;;;;;20.00;12.38;;;13.50;99.90;;;13.83;100.00;101301.41;4863035;29;20037;-68
2024/03/18 02:19:45;;;;;;;21.00;12.60;;;13.50;99.90;;;13.84;100.00;101307.63;4863161;29;20415;-67
2024/03/18 02:22:14;;;;;;;16.35;12.40;;;13.50;99.90;;;13.85;100.00;101315.56;4878050;29;20254;-67
2024/03/18 02:24:42;;;;;;;19.27;12.13;;;13.50;99.90;;;13.87;100.00;101311.13;4862667;29;20056;-67
2024/03/18 02:27:12;;;;;;;21.60;12.93;;;13.50;99.90;;;13.71;100.00;101266.97;4877054;29;20097;-67
2024/03/18 02:29:40;;;;;;;21.63;12.70;;;13.50;99.90;;;13.91;100.00;101301.31;4862737;29;20053;-68
2024/03/18 02:32:07;;;;;;;18.50;12.85;;;13.60;99.90;;;13.92;100.00;101298.63;4877851;29;20304;-67
2024/03/18 02:34:35;;;;;;;21.70;12.68;;;13.60;99.90;;;13.93;100.00;101291.56;4862553;29;20053;-67
2024/03/18 02:37:03;;;;;;;22.00;13.55;;;13.60;99.90;;;13.88;100.00;101278.28;4862903;29;20093;-67
2024/03/18 02:39:33;;;;;;;16.38;12.20;;;13.60;99.90;;;13.93;100.00;101286.22;4877777;29;20051;-68
2024/03/18 02:42:00;;;;;;;19.33;13.27;;;13.60;99.90;;;13.95;100.00;101295.06;4877938;29;20427;-67
2024/03/18 02:44:28;;;;;;;24.85;13.63;;;13.60;99.90;;;13.78;100.00;101267.78;4877751;29;20607;-67
2024/03/18 02:46:55;;;;;;;23.77;13.93;;;13.50;99.90;;;13.91;100.00;101275.63;4862117;29;20082;-67
2024/03/18 02:49:22;;;;;;;20.77;13.13;;;13.60;99.90;;;13.95;100.00;101285.31;4877871;29;20514;-67
2024/03/18 02:51:50;;;;;;;21.45;13.68;;;13.60;99.90;;;13.86;100.00;101266.78;4877631;29;20052;-67
2024/03/18 02:54:17;;;;;;;18.83;13.30;;;13.60;99.90;;;13.95;100.00;101281.78;4877897;29;20064;-68
2024/03/18 02:56:46;;;;;;;19.00;13.43;;;13.60;99.90;;;13.93;100.00;101284.47;4877787;29;20080;-67
2024/03/18 02:59:13;;;;;;;18.75;13.63;;;13.60;99.90;;;13.93;100.00;101284.47;4878041;29;20052;-67
2024/03/18 03:01:41;;;;;;;20.45;13.55;;;13.60;99.90;;;13.97;100.00;101285.31;4877596;29;20116;-67
2024/03/18 03:04:08;;;;;;;20.67;14.60;;;13.60;99.90;;;13.86;100.00;101288.06;4877315;29;20052;-68
2024/03/18 03:06:36;;;;;;;25.40;13.35;;;13.60;99.90;;;13.86;100.00;101285.41;4877827;29;20048;-68
2024/03/18 03:09:03;;;;;;;20.95;13.95;;;13.50;99.90;;;13.83;100.00;101284.56;4873946;29;20061;-67
2024/03/18 03:11:30;;;;;;;22.17;14.13;;;13.50;99.90;;;13.85;100.00;101282.78;4858617;29;20100;-67
2024/03/18 03:13:59;;;;;;;22.08;13.60;;;13.50;99.90;;;13.82;100.00;101280.16;4874070;29;20043;-67
2024/03/18 03:16:26;;;;;;;17.70;12.95;;;13.50;99.90;;;13.80;100.00;101287.28;4858508;29;20042;-67
2024/03/18 03:18:55;;;;;;;22.98;13.50;;;13.40;99.90;;;13.14;100.00;101164.81;4874025;29;20057;-69
2024/03/18 03:21:22;;;;;;;21.05;13.95;;;13.40;99.90;;;13.79;100.00;101283.72;4858515;29;20144;-67
2024/03/18 03:23:50;;;;;;;18.52;13.70;;;13.40;99.90;;;13.80;100.00;101281.97;4874286;29;20053;-68
2024/03/18 03:26:18;;;;;;;21.27;13.90;;;13.40;99.90;;;13.81;100.00;101279.28;4873892;29;20053;-67
2024/03/18 03:28:46;;;;;;;23.23;14.63;;;13.40;99.90;;;13.87;100.00;101276.56;4873769;29;20606;-67
2024/03/18 03:31:15;;;;;;;21.45;14.38;;;13.50;99.90;;;13.83;100.00;101280.13;4873745;29;20092;-67
2024/03/18 03:33:43;;;;;;;21.40;14.05;;;13.50;99.90;;;13.84;100.00;101279.22;4873963;29;20060;-67
2024/03/18 03:36:11;;;;;;;22.27;14.50;;;13.50;99.90;;;13.80;100.00;101288.13;4873934;29;20060;-67
2024/03/18 03:38:39;;;;;;;25.50;14.05;;;13.50;99.90;;;13.78;100.00;101294.38;4873596;29;20069;-67
2024/03/18 03:41:07;;;;;;;19.17;13.57;;;13.40;99.90;;;13.73;100.00;101290.88;4858115;29;20049;-67
2024/03/18 03:43:34;;;;;;;22.52;13.75;;;13.40;99.90;;;13.70;100.00;101288.25;4873360;29;20098;-67
2024/03/18 03:46:02;;;;;;;20.75;13.68;;;13.40;99.90;;;13.71;100.00;101303.31;4873757;29;20415;-67
2024/03/18 03:48:31;;;;;;;23.77;14.15;;;13.30;99.90;;;13.68;100.00;101303.34;4873751;29;20045;-68
2024/03/18 03:50:58;;;;;;;22.17;13.93;;;13.30;99.90;;;13.70;100.00;101314.84;4873640;29;20049;-67
2024/03/18 03:53:27;;;;;;;19.25;13.60;;;13.30;99.90;;;13.57;100.00;101307.00;4858001;29;20439;-67
2024/03/18 03:55:56;;;;;;;23.70;14.20;;;13.30;99.90;;;13.55;100.00;101307.88;4874051;29;20076;-67
2024/03/18 03:58:25;;;;;;;20.02;13.82;;;13.20;99.90;;;13.57;100.00;101319.38;4873259;29;20057;-68
2024/03/18 04:00:52;;;;;;;24.08;14.10;;;13.20;99.90;;;13.50;100.00;101312.38;4873512;29;20049;-67
2024/03/18 04:03:24;;;;;;;20.65;13.43;;;13.20;99.90;;;13.54;100.00;101316.78;4858034;29;20060;-67
2024/03/18 04:05:54;;;;;;;25.00;13.93;;;13.20;99.90;;;13.60;100.00;101319.38;4857774;29;20045;-67
2024/03/18 04:08:21;;;;;;;19.27;13.60;;;13.20;99.90;;;13.57;100.00;101322.03;4873088;29;20045;-67
2024/03/18 04:10:49;;;;;;;20.48;13.05;;;13.30;99.90;;;13.61;100.00;101317.59;4857821;29;20049;-67
2024/03/18 04:13:17;;;;;;;20.65;13.15;;;13.20;99.90;;;13.65;100.00;101320.19;4872982;29;20046;-67
2024/03/18 04:15:45;;;;;;;23.08;14.18;;;13.30;99.90;;;13.61;100.00;101317.59;4857878;29;20393;-67
2024/03/18 04:18:12;;;;;;;25.42;13.48;;;13.30;99.90;;;13.55;100.00;101311.44;4873438;29;20048;-67
2024/03/18 04:20:40;;;;;;;26.52;14.95;;;13.20;99.90;;;13.52;100.00;101316.78;4873116;29;20105;-68
2024/03/18 04:23:09;;;;;;;24.75;14.23;;;13.20;99.90;;;13.54;100.00;101322.97;4857670;29;20041;-68
2024/03/18 04:25:37;;;;;;;27.00;13.52;;;13.20;99.90;;;13.55;100.00;101329.16;4872895;29;20038;-67
2024/03/18 04:28:07;;;;;;;23.35;12.65;;;13.20;99.90;;;13.61;100.00;101331.75;4857681;29;20102;-67
2024/03/18 04:30:36;;;;;;;22.90;12.00;;;13.20;99.90;;;13.37;100.00;101297.44;4873149;29;20500;-67
2024/03/18 04:33:06;;;;;;;27.13;12.32;;;13.30;99.90;;;13.59;100.00;101331.78;4857741;29;20053;-68
2024/03/18 04:35:34;;;;;;;19.98;11.55;;;13.20;99.90;;;13.57;100.00;101333.56;4873354;29;20552;-67
2024/03/18 04:38:01;;;;;;;22.38;12.90;;;13.20;99.90;;;13.49;100.00;101311.50;4857326;29;20663;-67
2024/03/18 04:40:30;;;;;;;28.40;11.27;;;13.20;99.90;;;13.60;100.00;101327.34;4872718;29;20045;-68
2024/03/18 04:42:58;;;;;;;18.85;11.98;;;13.20;99.90;;;13.57;100.00;101330.91;4873129;29;20050;-67
2024/03/18 04:45:26;;;;;;;19.70;11.77;;;13.20;99.90;;;13.69;100.00;101331.69;4872688;29;20415;-67
2024/03/18 04:47:55;;;;;;;28.83;14.30;;;13.30;99.90;;;13.61;100.00;101329.09;4873007;29;20050;-67
2024/03/18 04:50:25;;;;;;;22.13;12.27;;;13.30;99.90;;;13.62;100.00;101328.22;4860257;29;20448;-67
2024/03/18 04:52:54;;;;;;;29.27;13.38;;;13.30;99.90;;;13.57;100.00;101336.22;4876639;29;20053;-67
2024/03/18 04:55:23;;;;;;;23.42;14.32;;;13.30;99.90;;;13.56;100.00;101334.47;4861055;29;20049;-67
2024/03/18 04:57:55;;;;;;;27.63;14.32;;;13.20;99.90;;;13.50;100.00;101330.97;4861149;29;20049;-67
2024/03/18 05:00:25;;;;;;;25.42;14.45;;;13.20;99.90;;;13.52;100.00;101332.75;4876446;29;20053;-67
2024/03/18 05:02:54;;;;;;;29.00;15.00;;;13.20;99.90;;;13.52;100.00;101335.41;4876804;29;20037;-67
2024/03/18 05:05:22;;;;;;;26.50;14.55;;;13.20;99.90;;;13.55;100.00;101335.34;4876753;29;20053;-67
2024/03/18 05:07:50;;;;;;;30.92;15.30;;;13.20;99.90;;;13.61;100.00;101334.41;4876505;29;20069;-68
2024/03/18 05:10:21;;;;;;;26.38;13.93;;;13.20;99.90;;;13.02;100.00;101228.66;4860648;29;20054;-67
2024/03/18 05:12:49;;;;;;;32.53;14.80;;;13.30;99.90;;;13.61;100.00;101331.75;4860865;29;20049;-67
2024/03/18 05:15:17;;;;;;;34.63;15.88;;;13.20;99.90;;;13.68;100.00;101329.94;4876249;29;20452;-67
2024/03/18 05:17:45;;;;;;;34.78;15.30;;;13.30;99.90;;;13.59;100.00;101331.78;4876389;29;20049;-67
2024/03/18 05:20:13;;;;;;;34.58;15.55;;;13.30;99.90;;;13.61;100.00;101331.75;4876347;29;20057;-67
2024/03/18 05:22:40;;;;;;;36.05;15.32;;;13.30;99.90;;;13.59;100.00;101326.47;4860549;29;20046;-67
2024/03/18 05:25:10;;;;;;;31.30;14.45;;;13.30;99.90;;;13.67;100.00;101330.81;4875969;29;20045;-67
2024/03/18 05:27:38;;;;;;;38.20;14.88;;;13.30;99.90;;;13.62;100.00;101335.31;4860807;29;20045;-67
2024/03/18 05:30:07;;;;;;;26.88;13.23;;;13.30;99.90;;;13.59;100.00;101318.50;4876021;29;20487;-67
2024/03/18 05:32:36;;;;;;;27.50;13.63;;;13.30;99.90;;;13.70;100.00;101333.47;4876197;29;20051;-67
2024/03/18 05:35:03;;;;;;;27.33;13.98;;;13.30;99.90;;;13.48;100.00;101307.09;4876332;29;20095;-67
2024/03/18 05:37:31;;;;;;;27.67;13.00;;;13.30;99.90;;;13.68;100.00;101328.16;4860238;29;20053;-67
2024/03/18 05:40:02;;;;;;;32.05;13.60;;;13.30;99.90;;;13.71;100.00;101329.88;4875908;29;20082;-67
2024/03/18 05:42:30;;;;;;;38.58;14.00;;;13.30;99.90;;;13.66;100.00;101331.72;4876053;29;20121;-67
2024/03/18 05:44:57;;;;;;;40.92;15.27;;;13.30;99.90;;;13.73;100.00;101330.75;4875528;29;20046;-68
2024/03/18 05:47:24;;;;;;;29.48;12.82;;;13.30;99.90;;;13.72;100.00;101324.59;4875752;29;20460;-67
2024/03/18 05:49:53;;;;;;;33.42;13.60;;;13.30;99.90;;;13.78;100.00;101323.63;4875929;29;20681;-67
2024/03/18 05:52:23;;;;;;;32.15;13.43;;;13.40;99.90;;;13.83;100.00;101321.78;4875405;29;20054;-67
2024/03/18 05:54:50;;;;;;;37.17;13.57;;;13.40;99.90;;;13.85;100.00;101320.88;4875732;29;20102;-68
2024/03/18 05:57:17;;;;;;;30.30;13.05;;;13.50;99.90;;;13.82;100.00;101314.72;4860361;29;20127;-67
2024/03/18 05:59:45;;;;;;;32.70;13.20;;;13.50;99.90;;;13.87;100.00;101323.53;4875564;29;20504;-67
2024/03/18 06:02:12;;;;;;;31.55;13.00;;;13.50;99.90;;;13.85;100.00;101322.66;4875286;29;20098;-67
2024/03/18 06:04:40;;;;;;;33.55;13.23;;;13.50;99.90;;;13.81;100.00;101334.22;4875330;29;20072;-67
2024/03/18 06:07:08;;;;;;;35.83;13.57;;;13.50;99.90;;;13.81;100.00;101326.25;4875374;29;20049;-67
2024/03/18 06:09:36;;;;;;;32.85;13.15;;;13.50;99.90;;;13.89;100.00;101333.25;4875210;29;20061;-67
2024/03/18 06:12:04;;;;;;;33.47;12.80;;;13.50;99.90;;;13.95;100.00;101338.53;4875062;29;20460;-67
2024/03/18 06:14:32;;;;;;;37.72;14.32;;;13.60;99.90;;;13.96;100.00;101334.06;4859565;29;20104;-68
2024/03/18 06:16:59;;;;;;;30.00;13.25;;;13.60;99.90;;;14.00;100.00;101347.31;4874912;29;20137;-67
2024/03/18 06:19:33;;;;;;;33.95;13.43;;;13.60;99.90;;;14.02;100.00;101347.28;4875001;29;20431;-67
2024/03/18 06:22:05;;;;;;;34.67;12.13;;;13.70;99.90;;;13.99;100.00;101345.56;4875442;29;20066;-67
2024/03/18 06:27:15;;;;;;;29.77;12.43;;;13.70;99.90;;;13.99;100.00;101347.34;4859289;29;20053;-67
2024/03/18 06:29:42;;;;;;;34.17;13.50;;;13.60;99.90;;;14.01;100.00;101348.22;4874884;29;20049;-67
2024/03/18 06:32:10;;;;;;;33.13;12.55;;;13.70;99.90;;;14.00;100.00;101349.09;4874736;29;20041;-67
2024/03/18 06:34:37;;;;;;;24.92;11.77;;;13.60;99.90;;;14.00;100.00;101351.75;4874679;29;20116;-67
2024/03/18 06:37:05;;;;;;;32.25;12.60;;;13.70;99.90;;;14.01;100.00;101357.06;4874843;29;20049;-68
2024/03/18 06:39:34;;;;;;;30.77;12.75;;;13.70;99.90;;;14.03;100.00;101357.06;4874765;29;20056;-67
2024/03/18 06:42:01;;;;;;;28.08;13.63;;;13.70;99.90;;;14.04;100.00;101353.47;4859309;29;20547;-67
2024/03/18 06:44:30;;;;;;;32.25;13.18;;;13.70;99.90;;;14.05;100.00;101363.25;4874450;29;20054;-67
2024/03/18 06:46:57;;;;;;;30.52;11.90;;;13.70;99.90;;;14.05;100.00;101366.75;4874812;29;20045;-67
2024/03/18 06:49:24;;;;;;;29.60;12.38;;;13.70;99.90;;;14.08;100.00;101364.09;4874421;29;20417;-68
2024/03/18 06:51:52;;;;;;;30.20;12.43;;;13.70;99.90;;;14.10;100.00;101378.25;4874491;29;20042;-67
2024/03/18 06:54:19;;;;;;;29.00;13.18;;;13.80;99.90;;;14.11;100.00;101379.13;4874494;29;20042;-68
2024/03/18 06:56:48;;;;;;;34.88;13.15;;;13.80;99.90;;;14.10;100.00;101377.34;4874547;29;20053;-67
2024/03/18 06:59:16;;;;;;;35.50;12.77;;;13.80;99.90;;;14.13;100.00;101388.00;4874288;29;20042;-67
2024/03/18 07:01:43;;;;;;;35.58;13.52;;;13.80;99.90;;;14.05;100.00;101395.16;4874052;29;20037;-67
2024/03/18 07:04:10;;;;;;;42.72;14.18;;;13.70;99.90;;;14.01;100.00;101399.63;4873975;29;20098;-67
2024/03/18 07:06:38;;;;;;;38.05;13.13;;;13.70;99.90;;;14.11;100.00;101395.09;4874646;29;20109;-67
2024/03/18 07:09:07;;;;;;;35.67;12.18;;;13.80;99.90;;;14.13;100.00;101401.28;4874214;29;20057;-67
2024/03/18 07:11:34;;;;;;;29.65;11.93;;;13.80;99.90;;;14.15;100.00;101394.19;4873747;29;20537;-67
2024/03/18 07:14:03;;;;;;;32.25;11.70;;;13.80;99.90;;;14.10;100.00;101393.31;4873949;29;20515;-68
2024/03/18 07:16:30;;;;;;;34.95;12.00;;;13.80;99.90;;;14.09;100.00;101392.44;4874415;29;20100;-68
2024/03/18 07:18:58;;;;;;;34.75;11.70;;;13.70;99.90;;;14.13;100.00;101395.97;4873900;29;20120;-67
2024/03/18 07:21:25;;;;;;;32.65;11.70;;;13.70;99.90;;;14.09;100.00;101403.06;4874424;29;20125;-67
2024/03/18 07:23:52;;;;;;;38.13;12.27;;;13.80;99.90;;;13.85;100.00;101366.09;4858552;29;20397;-68
2024/03/18 07:26:21;;;;;;;29.58;11.13;;;13.70;99.90;;;14.05;100.00;101411.13;4874650;29;20069;-67
2024/03/18 07:28:49;;;;;;;37.47;11.73;;;13.70;99.90;;;13.48;100.00;101285.81;4873937;29;20041;-66
2024/03/18 07:31:18;;;;;;;31.42;11.32;;;13.70;99.90;;;14.11;100.00;101398.63;4858173;29;20121;-66
2024/03/18 07:33:46;;;;;;;31.05;10.43;;;13.70;99.90;;;14.10;100.00;101393.31;4873577;29;20765;-66
2024/03/18 07:36:13;;;;;;;31.02;11.57;;;13.80;99.90;;;14.23;100.00;101394.94;4874380;29;20384;-66
2024/03/18 07:38:41;;;;;;;30.73;10.68;;;13.80;99.90;;;14.28;100.00;101398.50;4873511;29;20077;-66
2024/03/18 07:41:08;;;;;;;29.48;10.63;;;13.90;99.90;;;14.35;100.00;101397.50;4873487;29;20053;-66
2024/03/18 07:43:35;;;;;;;34.88;11.77;;;14.00;99.90;;;14.40;100.00;101398.38;4873309;29;20050;-66
2024/03/18 07:46:03;;;;;;;30.83;11.27;;;14.10;99.90;;;14.44;100.00;101394.72;4873314;29;20114;-67
2024/03/18 07:48:32;;;;;;;25.17;9.93;;;14.10;99.90;;;14.60;100.00;101399.00;4873419;29;20495;-67
2024/03/18 07:51:02;;;;;;;35.42;11.23;;;14.20;99.90;;;14.78;100.00;101405.88;4873808;29;20113;-68
2024/03/18 07:53:29;;;;;;;30.38;11.27;;;14.40;99.90;;;14.97;100.00;101402.03;4873488;29;20057;-68
2024/03/18 07:56:01;;;;;;;27.85;9.70;;;14.60;99.90;;;15.05;100.00;101395.72;4873533;29;20060;-68
2024/03/18 07:58:28;;;;;;;34.20;11.35;;;14.70;99.90;;;15.12;100.00;101405.38;4858029;29;20057;-68
2024/03/18 08:00:56;;;;;;;30.65;9.68;;;14.80;99.90;;;15.00;100.00;101408.22;4857728;29;20103;-68
2024/03/18 08:03:24;;;;;;;26.58;9.48;;;14.70;99.90;;;15.11;100.00;101405.41;4842230;29;20050;-68
2024/03/18 08:05:54;;;;;;;28.67;9.55;;;14.80;99.90;;;15.09;100.00;101394.78;4873384;29;20185;-69
2024/03/18 08:08:22;;;;;;;24.85;9.07;;;14.90;99.90;;;15.35;100.00;101415.69;4857514;29;20061;-67
2024/03/18 08:10:49;;;;;;;34.13;9.77;;;15.00;99.90;;;15.33;100.00;101391.72;4873323;29;20061;-66
2024/03/18 08:13:17;;;;;;;24.27;8.77;;;15.20;99.90;;;15.55;98.80;101421.66;4873759;29;20158;-67
2024/03/18 08:15:47;;;;;;;28.00;9.07;;;15.20;99.90;;;15.61;97.22;101428.66;4857545;29;20113;-67
2024/03/18 08:18:15;;;;;;;;;;;15.40;99.90;;;15.67;96.06;101424.13;4873557;29;20140;-69
2024/03/18 08:20:42;;;;;;;25.98;9.60;;;15.40;99.90;;;15.77;94.82;101432.84;4857722;29;19924;-69
2024/03/18 08:23:11;;;;;;;23.40;8.50;;;15.50;99.90;;;15.72;94.24;101437.34;4872447;29;20052;-69
2024/03/18 08:25:38;;;;;;;23.15;8.20;;;15.40;99.90;;;15.72;93.09;101440.03;4872769;29;20041;-69
2024/03/18 08:28:06;;;;;;;21.98;8.15;;;15.50;99.90;;;15.85;93.44;101438.94;4872811;29;20042;-69
2024/03/18 08:30:34;;;;;;;21.25;7.90;;;15.50;99.90;;;15.93;93.41;101447.69;4873048;29;20041;-70
2024/03/18 08:33:01;;;;;;;25.60;7.95;;;15.60;99.90;;;16.03;93.39;101452.84;4872961;29;20492;-69
2024/03/18 08:35:29;;;;;;;22.35;8.15;;;15.70;99.90;;;15.98;90.55;101456.50;4872736;29;20077;-69
2024/03/18 08:37:56;;;;;;;25.83;8.15;;;15.70;99.90;;;15.84;88.43;101454.06;4872707;29;20529;-69
2024/03/18 08:40:25;;;;;;;15.93;6.47;;;15.60;99.90;;;15.60;84.53;101450.91;4873051;29;20049;-69
2024/03/18 08:42:53;;;;;;;18.85;7.78;;;15.40;99.90;;;15.45;85.15;101453.81;4872659;29;20043;-68
2024/03/18 08:45:21;;;;;;;16.67;6.50;;;15.20;99.90;;;15.45;85.26;101461.81;4872780;29;20037;-65
2024/03/18 08:47:49;;;;;;;22.73;7.30;;;15.20;99.90;;;15.36;84.86;101452.13;4872872;29;20407;-65
2024/03/18 08:50:17;;;;;;;17.85;6.68;;;15.10;99.90;;;15.27;85.50;101423.81;4873125;29;20058;-67
2024/03/18 08:52:45;;;;;;;16.15;6.47;;;15.20;99.90;;;15.52;83.84;101466.16;4857175;29;20056;-67
2024/03/18 08:55:12;;;;;;;15.65;6.30;;;15.20;99.90;;;15.51;82.26;101459.94;4872861;29;20280;-67
2024/03/18 08:57:41;;;;;;;12.40;5.55;;;15.30;99.90;;;15.31;81.01;101454.00;4872879;29;20064;-67
2024/03/18 09:00:10;;;;;;;13.48;5.82;;;15.10;99.90;;;15.50;80.16;101457.28;4857091;29;20075;-67
2024/03/18 09:02:39;;;;;;;13.73;5.35;;;15.20;99.90;;;15.28;77.53;101457.56;4872784;29;20042;-66
2024/03/18 09:05:07;;;;;;;14.80;4.93;;;15.10;99.90;;;14.91;74.21;101461.63;4857045;29;20045;-67
2024/03/18 09:07:35;;;;;;;15.70;5.72;;;14.80;99.90;;;14.66;75.04;101460.16;4872952;29;20400;-68
2024/03/18 09:10:02;;;;;;;11.73;5.35;;;14.50;99.90;;;14.28;76.94;101475.66;4872921;29;20053;-67
2024/03/18 09:12:29;;;;;;;16.52;5.72;;;14.20;99.90;;;13.88;79.13;101376.69;4856924;29;20046;-68
2024/03/18 09:14:59;;;;;;;13.90;5.57;;;14.10;99.90;;;14.43;82.56;101460.44;4872659;29;20057;-66
2024/03/18 09:17:26;;;;;;;13.73;6.20;;;14.10;99.90;;;14.43;83.04;101464.84;4872623;29;20045;-67
2024/03/18 09:19:54;;;;;;;17.05;5.80;;;14.20;99.90;;;13.95;82.22;101398.81;4872574;29;20053;-67
2024/03/18 09:22:21;;;;;;;21.85;6.38;;;14.10;99.90;;;14.46;82.82;101471.03;4872581;29;20050;-68
2024/03/18 09:24:49;;;;;;;21.20;6.32;;;14.20;99.90;;;14.40;84.32;101462.25;4872353;29;20050;-68
2024/03/18 09:27:16;;;;;;;16.23;6.28;;;14.10;99.90;;;14.58;84.02;101463.78;4872223;29;20041;-68
2024/03/18 09:29:45;;;;;;;21.45;6.07;;;14.30;99.90;;;14.64;83.76;101461.94;4872324;29;20045;-68
2024/03/18 09:32:14;;;;;;;17.75;5.90;;;14.40;99.90;;;14.84;83.46;101469.72;4857059;29;20064;-67
2024/03/18 09:34:42;;;;;;;14.77;5.78;;;14.50;99.90;;;15.09;83.22;101477.38;4872348;29;20046;-68
2024/03/18 09:37:10;;;;;;;18.90;5.78;;;14.80;99.90;;;15.14;81.23;101480.84;4875971;29;20044;-68
2024/03/18 09:39:38;;;;;;;17.60;5.70;;;14.90;99.90;;;15.21;82.22;101482.53;4860287;29;20041;-74
2024/03/18 09:42:06;;;;;;;14.05;6.30;;;15.00;99.90;;;15.28;81.08;101483.34;4875649;29;20053;-70
2024/03/18 09:44:35;;;;;;;16.00;5.93;;;15.10;99.90;;;15.42;79.59;101485.84;4875379;29;20453;-68
2024/03/18 09:47:04;;;;;;;13.93;5.63;;;15.10;99.90;;;15.24;78.89;101486.94;4875540;29;20053;-69
2024/03/18 09:49:34;;;;;;;21.85;6.15;;;15.00;99.90;;;15.24;79.60;101492.28;4875768;29;20061;-69
2024/03/18 09:52:04;;;;;;;16.40;5.85;;;15.00;99.90;;;15.12;79.25;101468.44;4875779;29;20449;-68
2024/03/18 09:54:32;;;;;;;18.23;7.10;;;15.00;99.90;;;15.72;79.20;101488.03;4860129;29;20533;-68
2024/03/18 09:57:04;;;;;;;19.70;6.45;;;15.30;99.90;;;15.58;75.41;101477.59;4875288;29;20103;-69
2024/03/18 09:59:32;;;;;;;13.48;5.07;;;15.40;99.90;;;15.49;74.15;101479.50;4875567;29;20049;-69
2024/03/18 10:01:59;;;;;;;12.88;5.78;;;15.30;99.90;;;15.65;72.78;101484.59;4875710;29;20050;-69